Time;durP1;ratioP1;P1;durP2;ratioP2;P2;SDS_P1;SDS_P2;PMS_P1;PMS_P2;Temp;Humidity;BMP_temperature;BMP_pressure;BME280_temperature;BME280_humidity;BME280_pressure;Samples;Min_cycle;Max_cycle;Signal;HPM_P1;HPM_P2
2023/05/03 00:00:25;;;;;;;14.90;8.55;;;;;;;;;;5064558;28;20107;-60
2023/05/03 00:02:52;;;;;;;15.60;7.82;;;;;;;;;;5055404;28;20021;-63
2023/05/03 00:05:18;;;;;;;17.10;8.20;;;;;;;;;;5067768;28;20171;-61
2023/05/03 00:07:45;;;;;;;18.30;8.00;;;;;;;;;;5073856;28;20122;-61
2023/05/03 00:10:12;;;;;;;17.27;8.27;;;;;;;;;;5067201;28;20037;-62
2023/05/03 00:12:41;;;;;;;16.50;7.97;;;;;;;;;;5053411;28;20025;-60
2023/05/03 00:15:08;;;;;;;20.30;8.65;;;;;;;;;;5064495;28;20025;-59
2023/05/03 00:17:34;;;;;;;16.50;8.43;;;;;;;;;;5055323;28;20084;-62
2023/05/03 00:20:00;;;;;;;17.30;8.55;;;;;;;;;;5073654;28;20493;-60
2023/05/03 00:22:26;;;;;;;16.85;8.40;;;;;;;;;;5072710;28;20039;-62
2023/05/03 00:24:52;;;;;;;19.50;8.35;;;;;;;;;;5064902;28;20025;-58
2023/05/03 00:27:18;;;;;;;16.98;8.50;;;;;;;;;;5073403;28;20029;-62
2023/05/03 00:29:45;;;;;;;16.13;7.97;;;;;;;;;;5073390;28;20020;-63
2023/05/03 00:32:11;;;;;;;15.70;8.05;;;;;;;;;;5073377;28;20036;-62
2023/05/03 00:34:37;;;;;;;16.38;7.82;;;;;;;;;;5053872;28;20107;-60
2023/05/03 00:37:03;;;;;;;18.65;8.35;;;;;;;;;;5073249;28;20028;-58
2023/05/03 00:39:33;;;;;;;17.48;8.73;;;;;;;;;;5073186;28;20078;-60
2023/05/03 00:42:00;;;;;;;16.27;8.20;;;;;;;;;;5073338;28;20035;-61
2023/05/03 00:44:26;;;;;;;17.23;8.05;;;;;;;;;;5054743;28;20063;-63
2023/05/03 00:46:52;;;;;;;15.63;8.55;;;;;;;;;;5071925;28;20033;-63
2023/05/03 00:49:19;;;;;;;17.58;8.70;;;;;;;;;;5053969;28;20373;-63
2023/05/03 00:51:45;;;;;;;16.50;8.45;;;;;;;;;;5054032;28;20031;-63
2023/05/03 00:54:11;;;;;;;15.82;7.90;;;;;;;;;;5071701;28;20052;-63
2023/05/03 00:56:37;;;;;;;15.90;8.20;;;;;;;;;;5072159;28;20024;-63
2023/05/03 00:59:04;;;;;;;15.73;8.40;;;;;;;;;;5071297;28;20037;-61
2023/05/03 01:01:31;;;;;;;17.48;9.00;;;;;;;;;;5053637;28;20032;-60
2023/05/03 01:03:58;;;;;;;17.65;8.52;;;;;;;;;;5071745;28;20035;-58
2023/05/03 01:06:44;;;;;;;17.70;8.10;;;;;;;;;;5071726;28;20032;-62
2023/05/03 01:09:19;;;;;;;17.98;9.38;;;;;;;;;;5072069;28;20056;-62
2023/05/03 01:12:03;;;;;;;16.35;8.48;;;;;;;;;;5071907;28;20020;-60
2023/05/03 01:14:40;;;;;;;19.13;8.50;;;;;;;;;;5071107;28;20092;-61
2023/05/03 01:17:13;;;;;;;17.85;8.65;;;;;;;;;;5053677;28;20039;-60
2023/05/03 01:19:43;;;;;;;16.95;8.63;;;;;;;;;;5053591;28;20518;-62
2023/05/03 01:22:22;;;;;;;16.48;8.35;;;;;;;;;;5070864;28;20507;-60
2023/05/03 01:24:51;;;;;;;19.80;9.32;;;;;;;;;;5071020;28;20036;-63
2023/05/03 01:27:18;;;;;;;16.35;8.48;;;;;;;;;;5071218;28;20047;-63
2023/05/03 01:29:44;;;;;;;16.75;9.15;;;;;;;;;;5071281;28;20562;-62
2023/05/03 01:32:15;;;;;;;17.27;8.98;;;;;;;;;;5071567;28;20542;-61
2023/05/03 01:34:54;;;;;;;17.42;9.45;;;;;;;;;;5056909;28;20061;-61
2023/05/03 01:37:21;;;;;;;16.30;9.07;;;;;;;;;;5057385;28;20035;-61
2023/05/03 01:39:52;;;;;;;22.40;9.80;;;;;;;;;;5074850;28;20033;-60
2023/05/03 01:42:19;;;;;;;17.48;10.00;;;;;;;;;;5074824;28;20025;-62
2023/05/03 01:44:46;;;;;;;16.90;9.23;;;;;;;;;;5075035;28;20089;-63
2023/05/03 01:47:14;;;;;;;18.85;9.18;;;;;;;;;;5056960;28;20064;-63
2023/05/03 01:49:40;;;;;;;19.77;9.30;;;;;;;;;;5056409;28;20020;-62
2023/05/03 01:52:06;;;;;;;22.67;10.45;;;;;;;;;;5056905;28;20024;-61
2023/05/03 01:54:32;;;;;;;18.88;10.13;;;;;;;;;;5074505;28;20028;-64
2023/05/03 01:56:58;;;;;;;20.50;9.25;;;;;;;;;;5056663;28;20509;-63
2023/05/03 01:59:24;;;;;;;17.48;9.20;;;;;;;;;;5074504;28;20017;-63
2023/05/03 02:01:50;;;;;;;17.90;9.82;;;;;;;;;;5074139;28;20028;-63
2023/05/03 02:04:16;;;;;;;16.40;9.45;;;;;;;;;;5074333;28;20094;-61
2023/05/03 02:06:42;;;;;;;18.40;9.60;;;;;;;;;;5074448;28;20052;-62
2023/05/03 02:09:08;;;;;;;21.92;9.35;;;;;;;;;;5074372;28;20020;-63
2023/05/03 02:11:33;;;;;;;20.65;9.23;;;;;;;;;;5056516;28;20105;-63
2023/05/03 02:13:59;;;;;;;16.55;9.10;;;;;;;;;;5074088;28;20025;-63
2023/05/03 02:16:26;;;;;;;18.85;9.68;;;;;;;;;;5074549;28;20029;-64
2023/05/03 02:18:53;;;;;;;17.48;9.10;;;;;;;;;;5056484;28;20021;-62
2023/05/03 02:21:19;;;;;;;17.67;9.45;;;;;;;;;;5074349;28;20407;-63
2023/05/03 02:23:45;;;;;;;17.42;8.88;;;;;;;;;;5074759;28;20025;-60
2023/05/03 02:26:11;;;;;;;16.25;9.25;;;;;;;;;;5074207;28;20104;-64
2023/05/03 02:28:37;;;;;;;19.52;9.32;;;;;;;;;;5074275;28;20020;-61
2023/05/03 02:31:05;;;;;;;18.92;10.10;;;;;;;;;;5074734;28;20082;-61
2023/05/03 02:33:31;;;;;;;19.83;9.10;;;;;;;;;;5074431;28;20465;-63
2023/05/03 02:35:57;;;;;;;22.13;12.15;;;;;;;;;;5073486;28;20056;-63
2023/05/03 02:38:23;;;;;;;18.38;9.60;;;;;;;;;;5073570;28;20035;-62
2023/05/03 02:40:49;;;;;;;17.00;9.50;;;;;;;;;;5074206;28;20036;-63
2023/05/03 02:43:15;;;;;;;17.73;9.98;;;;;;;;;;5056123;28;20369;-61
2023/05/03 02:45:42;;;;;;;18.30;10.05;;;;;;;;;;5073072;28;20028;-63
2023/05/03 02:48:08;;;;;;;17.30;9.57;;;;;;;;;;5075047;28;20123;-62
2023/05/03 02:50:34;;;;;;;19.23;9.90;;;;;;;;;;5075847;28;20027;-63
2023/05/03 02:53:00;;;;;;;33.45;11.02;;;;;;;;;;5075184;28;20017;-63
2023/05/03 02:55:26;;;;;;;17.20;10.00;;;;;;;;;;5074487;28;20025;-63
2023/05/03 02:57:52;;;;;;;18.95;10.20;;;;;;;;;;5073608;28;20031;-62
2023/05/03 03:00:18;;;;;;;18.92;10.50;;;;;;;;;;5073286;28;20025;-63
2023/05/03 03:02:44;;;;;;;19.58;10.43;;;;;;;;;;5073697;28;20151;-63
2023/05/03 03:05:11;;;;;;;19.42;10.73;;;;;;;;;;5073423;28;20036;-63
2023/05/03 03:07:40;;;;;;;18.77;11.10;;;;;;;;;;5056011;28;20035;-63
2023/05/03 03:10:07;;;;;;;18.65;10.25;;;;;;;;;;5073443;28;20017;-63
2023/05/03 03:12:36;;;;;;;19.17;10.38;;;;;;;;;;5055360;28;20556;-64
2023/05/03 03:15:02;;;;;;;17.58;10.90;;;;;;;;;;5072872;28;20040;-62
2023/05/03 03:17:28;;;;;;;19.88;11.30;;;;;;;;;;5055223;28;20396;-61
2023/05/03 03:19:54;;;;;;;22.08;10.38;;;;;;;;;;5072445;28;20031;-61
2023/05/03 03:22:20;;;;;;;21.27;11.20;;;;;;;;;;5054708;28;20024;-60
2023/05/03 03:24:46;;;;;;;23.27;11.50;;;;;;;;;;5071988;28;20546;-60
2023/05/03 03:27:12;;;;;;;20.15;11.20;;;;;;;;;;5072220;28;20048;-62
2023/05/03 03:29:39;;;;;;;20.55;11.73;;;;;;;;;;5072214;28;20074;-63
2023/05/03 03:32:05;;;;;;;19.42;11.30;;;;;;;;;;5072267;28;20025;-60
2023/05/03 03:34:31;;;;;;;23.58;11.30;;;;;;;;;;5054225;28;20392;-60
2023/05/03 03:36:57;;;;;;;19.55;11.30;;;;;;;;;;5072579;28;20120;-60
2023/05/03 03:39:23;;;;;;;19.25;10.70;;;;;;;;;;5054080;28;20059;-61
2023/05/03 03:41:49;;;;;;;20.13;10.93;;;;;;;;;;5073026;28;20068;-60
2023/05/03 03:44:15;;;;;;;19.35;10.52;;;;;;;;;;5072428;28;20063;-60
2023/05/03 03:46:41;;;;;;;23.42;11.38;;;;;;;;;;5072275;28;20036;-60
2023/05/03 03:49:07;;;;;;;17.58;11.27;;;;;;;;;;5072125;28;20024;-63
2023/05/03 03:51:33;;;;;;;19.52;11.00;;;;;;;;;;5072191;28;20021;-63
2023/05/03 03:53:59;;;;;;;20.10;10.68;;;;;;;;;;5071888;28;20142;-62
2023/05/03 03:56:25;;;;;;;19.50;11.18;;;;;;;;;;5053816;28;20037;-62
2023/05/03 03:58:51;;;;;;;19.05;11.27;;;;;;;;;;5072144;28;20405;-60
2023/05/03 04:01:17;;;;;;;19.15;11.02;;;;;;;;;;5071613;28;20058;-62
2023/05/03 04:03:46;;;;;;;18.58;11.00;;;;;;;;;;5071202;28;20025;-62
2023/05/03 04:06:12;;;;;;;18.17;11.40;;;;;;;;;;5071727;28;20021;-62
2023/05/03 04:08:38;;;;;;;24.27;12.90;;;;;;;;;;5071809;28;20031;-61
2023/05/03 04:11:10;;;;;;;21.55;11.55;;;;;;;;;;5072073;28;20108;-61
2023/05/03 04:13:36;;;;;;;21.42;12.35;;;;;;;;;;5072048;28;20492;-62
2023/05/03 04:16:02;;;;;;;19.33;12.30;;;;;;;;;;5072278;28;20021;-62
2023/05/03 04:18:28;;;;;;;21.30;12.27;;;;;;;;;;5071808;28;20115;-63
2023/05/03 04:20:54;;;;;;;22.60;11.82;;;;;;;;;;5071886;28;20388;-62
2023/05/03 04:23:20;;;;;;;19.73;12.05;;;;;;;;;;5072122;28;20025;-63
2023/05/03 04:25:47;;;;;;;19.45;12.25;;;;;;;;;;5071647;28;20442;-62
2023/05/03 04:28:14;;;;;;;22.13;12.35;;;;;;;;;;5071997;28;20025;-61
2023/05/03 04:30:40;;;;;;;25.77;13.82;;;;;;;;;;5054293;28;20040;-60
2023/05/03 04:33:06;;;;;;;22.27;12.40;;;;;;;;;;5071841;28;20146;-64
2023/05/03 04:35:33;;;;;;;19.33;12.23;;;;;;;;;;5071670;28;20032;-63
2023/05/03 04:38:00;;;;;;;20.83;12.65;;;;;;;;;;5071959;28;20032;-63
2023/05/03 04:40:26;;;;;;;20.90;12.15;;;;;;;;;;5072479;28;20112;-63
2023/05/03 04:42:52;;;;;;;24.48;13.32;;;;;;;;;;5072039;28;20448;-63
2023/05/03 04:45:19;;;;;;;21.40;12.45;;;;;;;;;;5070405;28;20099;-62
2023/05/03 04:47:45;;;;;;;19.60;12.02;;;;;;;;;;5062714;28;20047;-63
2023/05/03 04:50:11;;;;;;;21.02;12.00;;;;;;;;;;5071062;28;20060;-63
2023/05/03 04:52:38;;;;;;;19.55;11.57;;;;;;;;;;5044987;28;20021;-61
2023/05/03 04:55:04;;;;;;;22.58;12.65;;;;;;;;;;5072131;28;20048;-63
2023/05/03 04:57:31;;;;;;;23.38;12.77;;;;;;;;;;5069831;28;20490;-59
2023/05/03 04:59:57;;;;;;;19.92;11.80;;;;;;;;;;5062881;28;20048;-63
2023/05/03 05:02:23;;;;;;;19.38;11.55;;;;;;;;;;5071010;28;20058;-61
2023/05/03 05:04:49;;;;;;;20.55;11.88;;;;;;;;;;5071006;28;20036;-63
2023/05/03 05:07:16;;;;;;;20.52;11.45;;;;;;;;;;5038230;28;20043;-59
2023/05/03 05:09:42;;;;;;;20.30;11.60;;;;;;;;;;5056231;28;20021;-62
2023/05/03 05:12:08;;;;;;;22.08;11.50;;;;;;;;;;5055390;28;20128;-62
2023/05/03 05:14:34;;;;;;;22.38;13.05;;;;;;;;;;5054927;28;20116;-63
2023/05/03 05:17:00;;;;;;;24.15;11.40;;;;;;;;;;5046190;28;20039;-62
2023/05/03 05:19:26;;;;;;;21.98;12.00;;;;;;;;;;5071377;28;20048;-61
2023/05/03 05:21:52;;;;;;;19.30;11.25;;;;;;;;;;5075020;28;20500;-63
2023/05/03 05:24:18;;;;;;;21.40;12.98;;;;;;;;;;5067070;28;20028;-63
2023/05/03 05:26:44;;;;;;;20.95;10.95;;;;;;;;;;5065988;28;20020;-66
2023/05/03 05:29:10;;;;;;;19.25;10.63;;;;;;;;;;5074981;28;20029;-62
2023/05/03 05:31:36;;;;;;;20.95;10.50;;;;;;;;;;5074712;28;20528;-62
2023/05/03 05:34:03;;;;;;;22.08;11.10;;;;;;;;;;5056717;28;20073;-62
2023/05/03 05:36:29;;;;;;;18.30;10.48;;;;;;;;;;5054772;28;20110;-62
2023/05/03 05:38:56;;;;;;;20.17;11.38;;;;;;;;;;5066686;22;20041;-52
2023/05/03 05:41:22;;;;;;;19.15;10.82;;;;;;;;;;5030905;28;20440;-54
2023/05/03 05:43:48;;;;;;;20.15;10.93;;;;;;;;;;5030832;28;20358;-51
2023/05/03 05:46:14;;;;;;;17.98;9.82;;;;;;;;;;5011087;28;20124;-55
2023/05/03 05:48:41;;;;;;;20.35;10.80;;;;;;;;;;5016072;28;20524;-53
2023/05/03 05:51:07;;;;;;;18.05;10.40;;;;;;;;;;5013121;28;20026;-51
2023/05/03 05:53:33;;;;;;;17.33;10.23;;;;;;;;;;5012936;28;20076;-55
2023/05/03 05:55:59;;;;;;;21.35;9.85;;;;;;;;;;5012680;28;20026;-54
2023/05/03 05:58:25;;;;;;;20.80;10.27;;;;;;;;;;5015659;28;20092;-51
2023/05/03 06:00:51;;;;;;;17.90;9.88;;;;;;;;;;5013986;28;20022;-52
2023/05/03 06:03:17;;;;;;;15.98;9.27;;;;;;;;;;5013656;28;20177;-53
2023/05/03 06:05:43;;;;;;;18.20;8.60;;;;;;;;;;5013893;28;20460;-54
2023/05/03 06:08:10;;;;;;;17.98;9.68;;;;;;;;;;5014351;28;20070;-52
2023/05/03 06:10:36;;;;;;;17.27;9.35;;;;;;;;;;5014048;28;20116;-56
2023/05/03 06:13:02;;;;;;;22.42;10.82;;;;;;;;;;5014922;28;20057;-56
2023/05/03 06:15:28;;;;;;;19.50;9.85;;;;;;;;;;5017399;28;20033;-53
2023/05/03 06:17:54;;;;;;;17.75;9.55;;;;;;;;;;5034148;28;20033;-53
2023/05/03 06:20:23;;;;;;;20.85;10.93;;;;;;;;;;5032751;28;20021;-54
2023/05/03 06:22:48;;;;;;;16.35;10.07;;;;;;;;;;5032337;28;20030;-51
2023/05/03 06:25:14;;;;;;;15.70;9.10;;;;;;;;;;5032540;28;20135;-52
2023/05/03 06:27:41;;;;;;;15.57;9.77;;;;;;;;;;5015699;28;20060;-56
2023/05/03 06:30:07;;;;;;;19.15;10.15;;;;;;;;;;5033379;28;20480;-54
2023/05/03 06:32:33;;;;;;;16.75;9.38;;;;;;;;;;5031972;28;20075;-56
2023/05/03 06:34:59;;;;;;;17.27;9.68;;;;;;;;;;5033181;28;20029;-51
2023/05/03 06:37:26;;;;;;;22.58;9.68;;;;;;;;;;5032759;28;20025;-50
2023/05/03 06:39:52;;;;;;;17.83;9.32;;;;;;;;;;5032570;28;20041;-55
2023/05/03 06:42:18;;;;;;;19.95;9.57;;;;;;;;;;5033069;28;20102;-55
2023/05/03 06:44:44;;;;;;;16.55;8.98;;;;;;;;;;5033208;28;20036;-54
2023/05/03 06:47:10;;;;;;;18.88;9.90;;;;;;;;;;5033082;28;20057;-55
2023/05/03 06:49:36;;;;;;;18.20;9.80;;;;;;;;;;5032736;28;20401;-52
2023/05/03 06:52:02;;;;;;;19.45;10.50;;;;;;;;;;5032939;28;20025;-50
2023/05/03 06:54:28;;;;;;;19.77;10.50;;;;;;;;;;5031331;28;20022;-50
2023/05/03 06:56:54;;;;;;;17.92;10.30;;;;;;;;;;5031205;28;20028;-54
2023/05/03 06:59:20;;;;;;;20.10;10.55;;;;;;;;;;5031129;28;20033;-56
2023/05/03 07:01:46;;;;;;;17.92;10.20;;;;;;;;;;5032577;28;20041;-53
2023/05/03 07:04:12;;;;;;;18.95;9.90;;;;;;;;;;5031713;28;20025;-51
2023/05/03 07:06:38;;;;;;;16.58;9.80;;;;;;;;;;5032349;28;20041;-57
2023/05/03 07:09:04;;;;;;;17.60;9.55;;;;;;;;;;5032517;28;20552;-52
2023/05/03 07:11:30;;;;;;;20.30;10.35;;;;;;;;;;5032557;28;20029;-51
2023/05/03 07:13:56;;;;;;;19.83;10.38;;;;;;;;;;5032350;28;20060;-54
2023/05/03 07:16:24;;;;;;;16.80;9.75;;;;;;;;;;5032429;28;20075;-52
2023/05/03 07:18:50;;;;;;;19.15;10.02;;;;;;;;;;5032464;28;20057;-53
2023/05/03 07:21:16;;;;;;;18.42;9.70;;;;;;;;;;5032347;28;20037;-53
2023/05/03 07:23:44;;;;;;;18.77;9.70;;;;;;;;;;5032412;28;20071;-53
2023/05/03 07:26:10;;;;;;;18.17;9.70;;;;;;;;;;5032495;28;20029;-54
2023/05/03 07:28:35;;;;;;;16.38;10.35;;;;;;;;;;5032562;28;20512;-53
2023/05/03 07:31:03;;;;;;;18.58;10.18;;;;;;;;;;5032197;28;20028;-58
2023/05/03 07:33:30;;;;;;;17.77;9.80;;;;;;;;;;5032454;28;20105;-52
2023/05/03 07:35:56;;;;;;;16.98;9.77;;;;;;;;;;5032206;28;20520;-57
2023/05/03 07:38:22;;;;;;;17.48;10.23;;;;;;;;;;5032210;28;20057;-54
2023/05/03 07:40:48;;;;;;;18.80;9.57;;;;;;;;;;5032251;28;20404;-53
2023/05/03 07:43:15;;;;;;;16.90;9.13;;;;;;;;;;5014479;28;20045;-56
2023/05/03 07:45:41;;;;;;;15.82;9.32;;;;;;;;;;5014171;28;20121;-56
2023/05/03 07:48:07;;;;;;;16.20;9.32;;;;;;;;;;5031897;28;20028;-56
2023/05/03 07:50:33;;;;;;;18.98;9.90;;;;;;;;;;5031747;28;20430;-53
2023/05/03 07:52:59;;;;;;;16.80;9.40;;;;;;;;;;5031890;28;20113;-54
2023/05/03 07:55:25;;;;;;;16.25;9.32;;;;;;;;;;5031637;28;20017;-54
2023/05/03 07:57:57;;;;;;;21.05;10.00;;;;;;;;;;5012744;28;20315;-51
2023/05/03 08:00:23;;;;;;;15.35;9.30;;;;;;;;;;5030598;28;20538;-58
2023/05/03 08:02:49;;;;;;;17.75;9.57;;;;;;;;;;5029246;28;20033;-56
2023/05/03 08:05:15;;;;;;;19.20;9.90;;;;;;;;;;5031361;28;20082;-51
2023/05/03 08:07:43;;;;;;;20.45;10.45;;;;;;;;;;5031361;28;20099;-57
2023/05/03 08:10:09;;;;;;;20.02;10.30;;;;;;;;;;5031560;28;20025;-55
2023/05/03 08:12:36;;;;;;;18.20;10.13;;;;;;;;;;5029765;28;20380;-50
2023/05/03 08:15:05;;;;;;;15.75;10.20;;;;;;;;;;5032191;28;20068;-54
2023/05/03 08:17:32;;;;;;;17.08;10.95;;;;;;;;;;5032727;28;20022;-52
2023/05/03 08:19:58;;;;;;;17.67;9.95;;;;;;;;;;5032016;28;20021;-55
2023/05/03 08:22:25;;;;;;;20.40;10.32;;;;;;;;;;5030176;28;20028;-55
2023/05/03 08:24:52;;;;;;;18.15;10.63;;;;;;;;;;5031065;28;20087;-56
2023/05/03 08:27:18;;;;;;;17.35;10.00;;;;;;;;;;5031083;28;20097;-55
2023/05/03 08:29:44;;;;;;;16.85;10.23;;;;;;;;;;5029948;28;20101;-57
2023/05/03 08:32:10;;;;;;;18.13;10.40;;;;;;;;;;5031077;28;20037;-56
2023/05/03 08:34:36;;;;;;;17.25;10.82;;;;;;;;;;5031350;28;20026;-55
2023/05/03 08:37:04;;;;;;;18.02;10.52;;;;;;;;;;5030803;28;20026;-50
2023/05/03 08:39:31;;;;;;;17.40;10.07;;;;;;;;;;5031423;28;20497;-51
2023/05/03 08:41:57;;;;;;;17.23;10.20;;;;;;;;;;5029387;28;20021;-53
2023/05/03 08:44:24;;;;;;;23.25;10.45;;;;;;;;;;5029889;28;20112;-55
2023/05/03 08:46:51;;;;;;;17.52;10.30;;;;;;;;;;5031535;28;20473;-52
2023/05/03 08:49:17;;;;;;;15.75;9.77;;;;;;;;;;5032630;28;20021;-53
2023/05/03 08:51:48;;;;;;;17.75;10.25;;;;;;;;;;5031020;28;20029;-53
2023/05/03 08:54:14;;;;;;;18.77;10.95;;;;;;;;;;5030160;28;20056;-52
2023/05/03 08:56:41;;;;;;;19.30;10.93;;;;;;;;;;5031688;28;20052;-51
2023/05/03 08:59:08;;;;;;;17.67;10.07;;;;;;;;;;5029853;28;20061;-52
2023/05/03 09:01:37;;;;;;;19.40;10.35;;;;;;;;;;5031256;28;20025;-53
2023/05/03 09:04:03;;;;;;;16.02;9.70;;;;;;;;;;5029822;28;20081;-55
2023/05/03 09:06:31;;;;;;;16.40;10.30;;;;;;;;;;5031148;28;20109;-53
2023/05/03 09:08:58;;;;;;;17.65;10.40;;;;;;;;;;5029946;28;20029;-55
2023/05/03 09:11:28;;;;;;;18.42;10.60;;;;;;;;;;5029810;28;20032;-53
2023/05/03 09:14:07;;;;;;;15.88;10.45;;;;;;;;;;5031300;28;20044;-56
2023/05/03 09:16:33;;;;;;;16.85;10.45;;;;;;;;;;5029950;28;20080;-54
2023/05/03 09:19:00;;;;;;;16.05;10.55;;;;;;;;;;5031398;28;20040;-56
2023/05/03 09:21:26;;;;;;;18.45;11.57;;;;;;;;;;5031210;28;20026;-53
2023/05/03 09:23:52;;;;;;;16.30;10.50;;;;;;;;;;5029811;28;20045;-58
2023/05/03 09:26:34;;;;;;;21.20;10.82;;;;;;;;;;5030730;28;20443;-53
2023/05/03 09:29:01;;;;;;;17.80;10.45;;;;;;;;;;5031283;28;20036;-51
2023/05/03 09:31:28;;;;;;;18.42;10.80;;;;;;;;;;5031372;28;20014;-56
2023/05/03 09:33:54;;;;;;;19.55;10.75;;;;;;;;;;5030939;28;20079;-52
2023/05/03 09:36:20;;;;;;;17.98;10.68;;;;;;;;;;5031106;28;20026;-54
2023/05/03 09:38:46;;;;;;;18.13;10.73;;;;;;;;;;5030752;28;20105;-57
2023/05/03 09:41:12;;;;;;;17.00;10.85;;;;;;;;;;5029474;28;20083;-51
2023/05/03 09:43:49;;;;;;;17.30;11.10;;;;;;;;;;5030941;28;20034;-54
2023/05/03 09:46:15;;;;;;;17.38;10.70;;;;;;;;;;5030711;28;20029;-52
2023/05/03 09:48:42;;;;;;;23.83;11.35;;;;;;;;;;5030664;28;20496;-52
2023/05/03 09:51:08;;;;;;;17.02;10.70;;;;;;;;;;5030822;28;20476;-54
2023/05/03 09:53:35;;;;;;;18.67;10.52;;;;;;;;;;5031885;28;20028;-54
2023/05/03 09:56:08;;;;;;;18.25;10.32;;;;;;;;;;5034362;28;20119;-52
2023/05/03 09:58:35;;;;;;;21.20;10.90;;;;;;;;;;5034572;28;20416;-53
2023/05/03 10:01:01;;;;;;;16.85;11.15;;;;;;;;;;5033266;28;20128;-55
2023/05/03 10:03:33;;;;;;;18.35;10.48;;;;;;;;;;5034435;28;20079;-51
2023/05/03 10:06:02;;;;;;;17.90;10.38;;;;;;;;;;5006012;28;20037;-53
2023/05/03 10:08:39;;;;;;;17.92;10.90;;;;;;;;;;5023811;28;20045;-64
2023/05/03 10:11:07;;;;;;;18.80;10.43;;;;;;;;;;5029514;28;20053;-58
2023/05/03 10:13:34;;;;;;;20.38;11.45;;;;;;;;;;5023721;28;20116;-60
2023/05/03 10:16:03;;;;;;;16.73;10.35;;;;;;;;;;5023768;28;20018;-56
2023/05/03 10:18:31;;;;;;;19.20;10.77;;;;;;;;;;5020755;28;20036;-57
2023/05/03 10:21:01;;;;;;;19.85;10.88;;;;;;;;;;5013664;28;20512;-55
2023/05/03 10:23:27;;;;;;;16.08;10.40;;;;;;;;;;5013267;28;20030;-55
2023/05/03 10:26:10;;;;;;;17.23;9.80;;;;;;;;;;5013677;28;20128;-58
2023/05/03 10:28:39;;;;;;;17.88;10.52;;;;;;;;;;5036199;28;20136;-54
2023/05/03 10:31:05;;;;;;;16.55;10.90;;;;;;;;;;5033567;28;20029;-59
2023/05/03 10:33:35;;;;;;;18.10;10.95;;;;;;;;;;5033677;28;20316;-55
2023/05/03 10:36:09;;;;;;;19.23;11.00;;;;;;;;;;5033963;28;20028;-57
2023/05/03 10:38:36;;;;;;;17.42;11.07;;;;;;;;;;5033256;28;20516;-55
2023/05/03 10:41:05;;;;;;;20.55;10.57;;;;;;;;;;5033620;28;20044;-59
2023/05/03 10:43:31;;;;;;;;;;;;;;;;;;5033939;28;20033;-57
2023/05/03 10:45:58;;;;;;;19.58;11.27;;;;;;;;;;4682427;28;9999800;-55
2023/05/03 10:48:24;;;;;;;16.52;10.77;;;;;;;;;;5028137;28;20474;-61
2023/05/03 10:50:51;;;;;;;20.35;11.20;;;;;;;;;;5030748;28;20450;-59
2023/05/03 10:53:36;;;;;;;16.55;11.15;;;;;;;;;;5030557;28;20033;-55
2023/05/03 10:56:04;;;;;;;16.25;10.73;;;;;;;;;;5010609;28;20055;-59
2023/05/03 10:58:32;;;;;;;17.25;10.93;;;;;;;;;;5009510;28;20557;-56
2023/05/03 11:00:58;;;;;;;18.63;11.00;;;;;;;;;;5010077;28;20481;-58
2023/05/03 11:03:37;;;;;;;16.60;11.05;;;;;;;;;;5020500;28;20029;-57
2023/05/03 11:06:04;;;;;;;16.85;11.57;;;;;;;;;;5029622;28;20026;-58
2023/05/03 11:08:36;;;;;;;17.70;11.60;;;;;;;;;;5012353;28;20398;-60
2023/05/03 11:11:02;;;;;;;16.80;10.88;;;;;;;;;;5012382;28;20670;-57
2023/05/03 11:13:28;;;;;;;17.92;11.10;;;;;;;;;;5012396;28;20043;-59
2023/05/03 11:15:55;;;;;;;21.65;11.93;;;;;;;;;;5021627;28;20200;-59
2023/05/03 11:18:21;;;;;;;17.05;11.43;;;;;;;;;;5018589;28;20489;-57
2023/05/03 11:20:47;;;;;;;17.25;10.90;;;;;;;;;;5016718;28;20060;-60
2023/05/03 11:23:14;;;;;;;18.60;11.07;;;;;;;;;;5018814;28;20022;-59
2023/05/03 11:25:40;;;;;;;19.35;12.13;;;;;;;;;;5022245;28;20558;-58
2023/05/03 11:28:06;;;;;;;17.17;11.55;;;;;;;;;;5021835;28;20486;-59
2023/05/03 11:30:33;;;;;;;15.98;11.15;;;;;;;;;;5021036;28;20076;-56
2023/05/03 11:33:00;;;;;;;16.48;11.43;;;;;;;;;;5027160;28;20018;-56
2023/05/03 11:35:28;;;;;;;19.05;11.77;;;;;;;;;;5030383;28;20029;-60
2023/05/03 11:37:54;;;;;;;23.23;12.20;;;;;;;;;;5027512;28;20091;-61
2023/05/03 11:42:52;;;;;;;18.80;11.25;;;;;;;;;;5016306;28;20083;-55
2023/05/03 11:45:19;;;;;;;19.60;11.82;;;;;;;;;;5030156;28;20496;-57
2023/05/03 11:47:46;;;;;;;17.80;12.00;;;;;;;;;;5017014;28;20040;-58
2023/05/03 11:50:12;;;;;;;17.08;11.38;;;;;;;;;;5010876;28;20060;-59
2023/05/03 11:52:38;;;;;;;16.55;11.40;;;;;;;;;;5010721;28;20026;-61
2023/05/03 11:55:06;;;;;;;19.17;12.35;;;;;;;;;;5010555;28;20105;-58
2023/05/03 11:57:32;;;;;;;20.17;12.35;;;;;;;;;;5010648;28;20111;-58
2023/05/03 12:00:13;;;;;;;18.30;12.65;;;;;;;;;;5010522;28;20033;-57
2023/05/03 12:02:39;;;;;;;18.52;12.35;;;;;;;;;;5010687;28;20028;-58
2023/05/03 12:05:06;;;;;;;16.27;12.40;;;;;;;;;;5010344;28;20026;-59
2023/05/03 12:07:35;;;;;;;16.55;13.00;;;;;;;;;;5010514;28;20022;-61
2023/05/03 12:10:11;;;;;;;19.27;13.93;;;;;;;;;;5010852;28;20149;-57
2023/05/03 12:12:37;;;;;;;19.40;12.93;;;;;;;;;;4663346;28;9999985;-61
2023/05/03 12:15:04;;;;;;;18.27;12.45;;;;;;;;;;5007317;28;20489;-62
2023/05/03 12:17:34;;;;;;;17.60;13.27;;;;;;;;;;5007615;28;20052;-61
2023/05/03 12:20:15;;;;;;;21.50;14.43;;;;;;;;;;5005940;28;20025;-62
2023/05/03 12:22:41;;;;;;;17.50;12.95;;;;;;;;;;5007646;28;20026;-61
2023/05/03 12:25:10;;;;;;;19.20;12.98;;;;;;;;;;5007231;28;20083;-59
2023/05/03 12:27:36;;;;;;;16.73;13.13;;;;;;;;;;5007092;28;20486;-60
2023/05/03 12:30:02;;;;;;;19.90;13.90;;;;;;;;;;5007911;28;20037;-61
2023/05/03 12:32:28;;;;;;;19.38;13.57;;;;;;;;;;5002905;28;20423;-62
2023/05/03 12:34:57;;;;;;;17.13;13.20;;;;;;;;;;5008338;28;20087;-62
2023/05/03 12:37:23;;;;;;;20.23;15.15;;;;;;;;;;5008941;28;20117;-60
2023/05/03 12:39:50;;;;;;;17.75;14.30;;;;;;;;;;5008967;28;20108;-60
2023/05/03 12:42:15;;;;;;;18.50;14.60;;;;;;;;;;5007924;28;20407;-58
2023/05/03 12:44:43;;;;;;;17.50;13.90;;;;;;;;;;5007452;28;20093;-60
2023/05/03 12:47:09;;;;;;;20.75;13.98;;;;;;;;;;5006541;28;20041;-61
2023/05/03 12:49:35;;;;;;;18.98;13.73;;;;;;;;;;5008019;28;20366;-58
2023/05/03 12:52:01;;;;;;;18.58;14.50;;;;;;;;;;5007242;28;20022;-59
2023/05/03 12:54:27;;;;;;;18.52;14.52;;;;;;;;;;5009640;28;20026;-59
2023/05/03 12:56:52;;;;;;;17.60;13.98;;;;;;;;;;5008562;28;20026;-60
2023/05/03 12:59:18;;;;;;;19.92;14.40;;;;;;;;;;5010101;28;20042;-58
2023/05/03 13:01:44;;;;;;;19.50;13.90;;;;;;;;;;5008528;28;20213;-59
2023/05/03 13:04:11;;;;;;;18.35;13.85;;;;;;;;;;5007914;28;20156;-59
2023/05/03 13:06:37;;;;;;;18.70;14.40;;;;;;;;;;5008069;28;20152;-61
2023/05/03 13:09:06;;;;;;;18.67;14.27;;;;;;;;;;5008062;28;20453;-57
2023/05/03 13:11:33;;;;;;;17.33;14.05;;;;;;;;;;5007564;28;20018;-61
2023/05/03 13:14:01;;;;;;;18.75;14.63;;;;;;;;;;5007126;28;20021;-61
2023/05/03 13:16:27;;;;;;;17.93;13.93;;;;;;;;;;5007576;28;20052;-59
2023/05/03 13:18:55;;;;;;;20.33;14.77;;;;;;;;;;5009341;28;20272;-59
2023/05/03 13:21:21;;;;;;;18.00;14.60;;;;;;;;;;5009215;28;20508;-60
2023/05/03 13:23:48;;;;;;;18.92;14.75;;;;;;;;;;5009614;28;20545;-59
2023/05/03 13:26:14;;;;;;;18.30;13.75;;;;;;;;;;5009191;28;20032;-59
2023/05/03 13:28:40;;;;;;;18.67;14.57;;;;;;;;;;5010180;28;20041;-59
2023/05/03 13:31:06;;;;;;;20.92;15.10;;;;;;;;;;5013369;28;20038;-58
2023/05/03 13:33:36;;;;;;;18.85;15.38;;;;;;;;;;5013518;28;20022;-59
2023/05/03 13:36:03;;;;;;;18.65;14.43;;;;;;;;;;5012544;28;20120;-59
2023/05/03 13:38:28;;;;;;;18.52;14.15;;;;;;;;;;5013015;28;20273;-59
2023/05/03 13:40:55;;;;;;;21.50;15.70;;;;;;;;;;5013017;28;20038;-59
2023/05/03 13:43:21;;;;;;;19.17;15.18;;;;;;;;;;5013090;28;20104;-60
2023/05/03 13:45:47;;;;;;;17.38;14.30;;;;;;;;;;5009799;28;20113;-61
2023/05/03 13:48:13;;;;;;;19.40;14.98;;;;;;;;;;5009823;28;20021;-60
2023/05/03 13:50:39;;;;;;;18.88;14.48;;;;;;;;;;5011350;28;20052;-59
2023/05/03 13:53:05;;;;;;;17.88;13.60;;;;;;;;;;4665967;28;10000463;-59
2023/05/03 13:55:31;;;;;;;19.23;14.55;;;;;;;;;;5009817;28;20058;-61
2023/05/03 13:57:57;;;;;;;17.58;13.43;;;;;;;;;;5008352;28;20412;-60
2023/05/03 14:00:23;;;;;;;22.35;14.48;;;;;;;;;;5008484;28;20033;-56
2023/05/03 14:02:50;;;;;;;17.92;14.07;;;;;;;;;;5010150;28;20037;-59
2023/05/03 14:05:18;;;;;;;17.95;14.60;;;;;;;;;;5010011;28;20091;-60
2023/05/03 14:07:44;;;;;;;18.25;13.60;;;;;;;;;;5010264;28;20459;-61
2023/05/03 14:10:10;;;;;;;17.33;13.52;;;;;;;;;;5010164;28;20253;-59
2023/05/03 14:12:37;;;;;;;17.90;13.90;;;;;;;;;;5009726;28;20041;-59
2023/05/03 14:15:03;;;;;;;18.33;14.43;;;;;;;;;;5009886;28;20026;-60
2023/05/03 14:17:29;;;;;;;17.48;14.10;;;;;;;;;;5009618;28;20036;-62
2023/05/03 14:19:56;;;;;;;18.90;14.73;;;;;;;;;;5008031;28;20390;-60
2023/05/03 14:22:22;;;;;;;20.92;14.10;;;;;;;;;;5009539;28;20037;-55